sensor_id;sensor_type;location;lat;lon;timestamp;pressure;altitude;pressure_sealevel;temperature;humidity
64460;BME280;50828;53.756;21.140;2023-07-08T00:04:23;100535.73;;;14.89;57.47
64460;BME280;50828;53.756;21.140;2023-07-08T00:09:31;100533.42;;;14.82;57.92
64460;BME280;50828;53.756;21.140;2023-07-08T00:14:39;100530.23;;;14.75;57.67
64460;BME280;50828;53.756;21.140;2023-07-08T00:19:47;100531.55;;;14.70;57.53
64460;BME280;50828;53.756;21.140;2023-07-08T00:24:55;100534.89;;;14.63;57.55
64460;BME280;50828;53.756;21.140;2023-07-08T00:30:04;100527.66;;;14.55;57.62
64460;BME280;50828;53.756;21.140;2023-07-08T00:35:16;100530.06;;;14.49;57.91
64460;BME280;50828;53.756;21.140;2023-07-08T00:40:24;100527.49;;;14.44;57.96
64460;BME280;50828;53.756;21.140;2023-07-08T00:45:38;100523.84;;;14.39;57.77
64460;BME280;50828;53.756;21.140;2023-07-08T00:51:09;100523.47;;;14.32;57.50
64460;BME280;50828;53.756;21.140;2023-07-08T00:56:22;100515.48;;;14.26;57.50
64460;BME280;50828;53.756;21.140;2023-07-08T01:01:34;100514.27;;;14.17;57.52
64460;BME280;50828;53.756;21.140;2023-07-08T01:06:46;100507.51;;;14.10;57.98
64460;BME280;50828;53.756;21.140;2023-07-08T01:12:05;100505.75;;;14.03;58.07
64460;BME280;50828;53.756;21.140;2023-07-08T01:17:13;100501.56;;;13.98;58.13
64460;BME280;50828;53.756;21.140;2023-07-08T01:22:21;100502.33;;;13.93;57.98
64460;BME280;50828;53.756;21.140;2023-07-08T01:27:32;100502.80;;;13.87;57.82
64460;BME280;50828;53.756;21.140;2023-07-08T01:32:43;100506.41;;;13.82;58.08
64460;BME280;50828;53.756;21.140;2023-07-08T01:37:51;100501.03;;;13.76;58.43
64460;BME280;50828;53.756;21.140;2023-07-08T01:43:00;100500.25;;;13.70;58.47
64460;BME280;50828;53.756;21.140;2023-07-08T01:48:12;100503.03;;;13.63;58.40
64460;BME280;50828;53.756;21.140;2023-07-08T01:53:27;100508.84;;;13.57;58.25
64460;BME280;50828;53.756;21.140;2023-07-08T01:58:36;100508.48;;;13.49;58.75
64460;BME280;50828;53.756;21.140;2023-07-08T02:03:44;100513.92;;;13.46;59.02
64460;BME280;50828;53.756;21.140;2023-07-08T02:08:53;100513.92;;;13.42;59.36
64460;BME280;50828;53.756;21.140;2023-07-08T02:14:04;100511.59;;;13.38;59.77
64460;BME280;50828;53.756;21.140;2023-07-08T02:19:12;100511.63;;;13.38;59.97
64460;BME280;50828;53.756;21.140;2023-07-08T02:24:19;100513.22;;;13.38;60.31
64460;BME280;50828;53.756;21.140;2023-07-08T02:29:28;100510.12;;;13.36;60.40
64460;BME280;50828;53.756;21.140;2023-07-08T02:34:38;100510.86;;;13.35;60.84
64460;BME280;50828;53.756;21.140;2023-07-08T02:39:45;100505.26;;;13.34;60.70
64460;BME280;50828;53.756;21.140;2023-07-08T02:44:53;100499.66;;;13.32;60.44
64460;BME280;50828;53.756;21.140;2023-07-08T02:50:00;100497.11;;;13.30;60.46
64460;BME280;50828;53.756;21.140;2023-07-08T02:55:10;100495.07;;;13.28;60.78
64460;BME280;50828;53.756;21.140;2023-07-08T03:00:18;100495.59;;;13.24;61.12
64460;BME280;50828;53.756;21.140;2023-07-08T03:05:25;100500.58;;;13.16;61.54
64460;BME280;50828;53.756;21.140;2023-07-08T03:10:33;100499.61;;;13.09;62.19
64460;BME280;50828;53.756;21.140;2023-07-08T03:15:40;100493.08;;;13.05;62.39
64460;BME280;50828;53.756;21.140;2023-07-08T03:20:51;100493.70;;;13.03;62.59
64460;BME280;50828;53.756;21.140;2023-07-08T03:25:59;100496.58;;;13.02;63.02
64460;BME280;50828;53.756;21.140;2023-07-08T03:31:10;100499.39;;;13.02;63.33
64460;BME280;50828;53.756;21.140;2023-07-08T03:36:19;100498.58;;;13.05;63.50
64460;BME280;50828;53.756;21.140;2023-07-08T03:41:30;100495.63;;;13.12;63.98
64460;BME280;50828;53.756;21.140;2023-07-08T03:46:38;100494.71;;;13.20;64.12
64460;BME280;50828;53.756;21.140;2023-07-08T03:51:46;100490.65;;;13.32;64.38
64460;BME280;50828;53.756;21.140;2023-07-08T03:56:55;100482.71;;;13.48;64.27
64460;BME280;50828;53.756;21.140;2023-07-08T04:02:04;100484.03;;;13.68;64.31
64460;BME280;50828;53.756;21.140;2023-07-08T04:07:11;100483.16;;;13.94;64.76
64460;BME280;50828;53.756;21.140;2023-07-08T04:12:19;100483.63;;;14.21;64.64
64460;BME280;50828;53.756;21.140;2023-07-08T04:17:27;100485.05;;;14.46;64.95
64460;BME280;50828;53.756;21.140;2023-07-08T04:22:35;100497.31;;;14.70;64.89
64460;BME280;50828;53.756;21.140;2023-07-08T04:27:42;100496.69;;;14.90;64.80
64460;BME280;50828;53.756;21.140;2023-07-08T04:32:51;100492.44;;;15.06;64.89
64460;BME280;50828;53.756;21.140;2023-07-08T04:37:59;100495.17;;;15.25;64.72
64460;BME280;50828;53.756;21.140;2023-07-08T04:43:07;100496.20;;;15.45;64.68
64460;BME280;50828;53.756;21.140;2023-07-08T04:48:17;100494.25;;;15.65;64.60
64460;BME280;50828;53.756;21.140;2023-07-08T04:53:26;100495.13;;;15.85;64.52
64460;BME280;50828;53.756;21.140;2023-07-08T04:58:34;100495.17;;;16.06;64.48
64460;BME280;50828;53.756;21.140;2023-07-08T05:03:42;100495.55;;;16.31;64.35
64460;BME280;50828;53.756;21.140;2023-07-08T05:08:49;100499.20;;;16.59;64.35
64460;BME280;50828;53.756;21.140;2023-07-08T05:13:57;100497.40;;;16.90;63.99
64460;BME280;50828;53.756;21.140;2023-07-08T05:19:05;100492.95;;;17.20;63.46
64460;BME280;50828;53.756;21.140;2023-07-08T05:24:12;100494.58;;;17.51;63.02
64460;BME280;50828;53.756;21.140;2023-07-08T05:29:20;100487.19;;;17.80;62.30
64460;BME280;50828;53.756;21.140;2023-07-08T05:34:27;100483.73;;;18.12;61.64
64460;BME280;50828;53.756;21.140;2023-07-08T05:39:35;100485.60;;;18.43;61.24
64460;BME280;50828;53.756;21.140;2023-07-08T05:44:42;100466.21;;;18.66;60.74
64460;BME280;50828;53.756;21.140;2023-07-08T05:49:50;100482.83;;;19.12;59.99
64460;BME280;50828;53.756;21.140;2023-07-08T05:54:57;100481.61;;;19.47;59.15
64460;BME280;50828;53.756;21.140;2023-07-08T06:00:07;100480.40;;;19.79;57.89
64460;BME280;50828;53.756;21.140;2023-07-08T06:05:19;100485.20;;;20.04;56.78
64460;BME280;50828;53.756;21.140;2023-07-08T06:10:27;100480.21;;;20.21;56.10
64460;BME280;50828;53.756;21.140;2023-07-08T06:15:34;100482.33;;;20.33;55.75
64460;BME280;50828;53.756;21.140;2023-07-08T06:20:50;100478.43;;;20.43;55.81
64460;BME280;50828;53.756;21.140;2023-07-08T06:25:58;100471.41;;;20.50;55.84
64460;BME280;50828;53.756;21.140;2023-07-08T06:31:05;100471.71;;;20.60;55.51
64460;BME280;50828;53.756;21.140;2023-07-08T06:36:13;100467.83;;;20.69;54.75
64460;BME280;50828;53.756;21.140;2023-07-08T06:41:21;100467.83;;;20.79;53.38
64460;BME280;50828;53.756;21.140;2023-07-08T06:46:28;100461.64;;;20.89;52.25
64460;BME280;50828;53.756;21.140;2023-07-08T06:51:36;100451.84;;;21.07;51.97
64460;BME280;50828;53.756;21.140;2023-07-08T06:56:43;100451.19;;;21.26;51.18
64460;BME280;50828;53.756;21.140;2023-07-08T07:01:51;100452.26;;;21.40;50.19
64460;BME280;50828;53.756;21.140;2023-07-08T07:06:58;100449.30;;;21.50;49.55
64460;BME280;50828;53.756;21.140;2023-07-08T07:12:07;100451.39;;;21.60;49.05
64460;BME280;50828;53.756;21.140;2023-07-08T07:17:15;100447.91;;;21.68;48.65
64460;BME280;50828;53.756;21.140;2023-07-08T07:22:23;100451.54;;;21.76;48.13
64460;BME280;50828;53.756;21.140;2023-07-08T07:27:31;100447.27;;;21.82;47.79
64460;BME280;50828;53.756;21.140;2023-07-08T07:32:38;100451.34;;;21.90;46.62
64460;BME280;50828;53.756;21.140;2023-07-08T07:37:46;100449.95;;;21.93;45.96
64460;BME280;50828;53.756;21.140;2023-07-08T07:42:53;100447.86;;;22.01;46.21
64460;BME280;50828;53.756;21.140;2023-07-08T07:48:01;100443.48;;;22.17;46.55
64460;BME280;50828;53.756;21.140;2023-07-08T07:53:08;100448.63;;;22.46;46.38
64460;BME280;50828;53.756;21.140;2023-07-08T07:58:16;100448.53;;;22.73;45.18
64460;BME280;50828;53.756;21.140;2023-07-08T08:03:24;100449.70;;;22.92;44.73
64460;BME280;50828;53.756;21.140;2023-07-08T08:08:32;100445.03;;;23.05;43.79
64460;BME280;50828;53.756;21.140;2023-07-08T08:13:43;100443.67;;;23.18;43.85
64460;BME280;50828;53.756;21.140;2023-07-08T08:18:50;100441.24;;;23.34;43.49
64460;BME280;50828;53.756;21.140;2023-07-08T08:23:57;100438.73;;;23.48;43.44
64460;BME280;50828;53.756;21.140;2023-07-08T08:29:06;100432.04;;;23.64;43.35
64460;BME280;50828;53.756;21.140;2023-07-08T08:34:13;100427.46;;;23.91;43.42
64460;BME280;50828;53.756;21.140;2023-07-08T08:39:21;100422.73;;;24.21;43.13
64460;BME280;50828;53.756;21.140;2023-07-08T08:44:31;100422.77;;;24.40;42.72
64460;BME280;50828;53.756;21.140;2023-07-08T08:49:47;100422.52;;;24.51;41.57
64460;BME280;50828;53.756;21.140;2023-07-08T08:54:58;100421.90;;;24.52;40.99
64460;BME280;50828;53.756;21.140;2023-07-08T09:00:09;100423.64;;;24.48;40.98
64460;BME280;50828;53.756;21.140;2023-07-08T09:05:21;100422.65;;;24.44;40.75
64460;BME280;50828;53.756;21.140;2023-07-08T09:10:39;100425.95;;;24.41;40.83
64460;BME280;50828;53.756;21.140;2023-07-08T09:15:49;100427.86;;;24.36;40.67
64460;BME280;50828;53.756;21.140;2023-07-08T09:21:00;100425.98;;;24.35;40.64
64460;BME280;50828;53.756;21.140;2023-07-08T09:26:15;100424.82;;;24.38;40.66
64460;BME280;50828;53.756;21.140;2023-07-08T09:31:26;100421.17;;;24.44;40.36
64460;BME280;50828;53.756;21.140;2023-07-08T09:36:38;100416.59;;;24.51;40.41
64460;BME280;50828;53.756;21.140;2023-07-08T09:41:47;100412.02;;;24.58;40.53
64460;BME280;50828;53.756;21.140;2023-07-08T09:46:55;100415.37;;;24.64;40.45
64460;BME280;50828;53.756;21.140;2023-07-08T09:52:06;100411.21;;;24.66;40.37
64460;BME280;50828;53.756;21.140;2023-07-08T09:57:26;100405.41;;;24.68;40.12
64460;BME280;50828;53.756;21.140;2023-07-08T10:02:40;100399.95;;;24.71;40.16
64460;BME280;50828;53.756;21.140;2023-07-08T10:07:51;100401.38;;;24.77;39.92
64460;BME280;50828;53.756;21.140;2023-07-08T10:13:01;100398.22;;;24.80;39.91
64460;BME280;50828;53.756;21.140;2023-07-08T10:18:15;100395.13;;;24.84;40.08
64460;BME280;50828;53.756;21.140;2023-07-08T10:23:31;100394.41;;;24.86;39.56
64460;BME280;50828;53.756;21.140;2023-07-08T10:28:47;100389.20;;;24.87;38.99
64460;BME280;50828;53.756;21.140;2023-07-08T10:34:17;100393.34;;;24.89;38.78
64460;BME280;50828;53.756;21.140;2023-07-08T10:39:44;100391.66;;;24.92;39.24
64460;BME280;50828;53.756;21.140;2023-07-08T10:45:01;100380.89;;;24.97;39.47
64460;BME280;50828;53.756;21.140;2023-07-08T10:50:22;100375.36;;;25.06;39.00
64460;BME280;50828;53.756;21.140;2023-07-08T10:55:40;100366.30;;;25.16;38.82
64460;BME280;50828;53.756;21.140;2023-07-08T11:00:55;100360.36;;;25.23;37.81
64460;BME280;50828;53.756;21.140;2023-07-08T11:06:08;100362.27;;;25.30;37.48
64460;BME280;50828;53.756;21.140;2023-07-08T11:11:28;100356.78;;;25.32;37.45
64460;BME280;50828;53.756;21.140;2023-07-08T11:16:40;100360.19;;;25.39;37.54
64460;BME280;50828;53.756;21.140;2023-07-08T11:21:53;100348.91;;;25.48;37.45
64460;BME280;50828;53.756;21.140;2023-07-08T11:27:06;100341.86;;;25.56;37.21
64460;BME280;50828;53.756;21.140;2023-07-08T11:32:18;100343.78;;;25.61;37.01
64460;BME280;50828;53.756;21.140;2023-07-08T11:37:28;100340.20;;;25.65;36.79
64460;BME280;50828;53.756;21.140;2023-07-08T11:42:41;100338.85;;;25.66;36.40
64460;BME280;50828;53.756;21.140;2023-07-08T11:48:12;100345.04;;;25.65;36.47
64460;BME280;50828;53.756;21.140;2023-07-08T11:53:38;100333.38;;;25.66;36.81
64460;BME280;50828;53.756;21.140;2023-07-08T11:59:03;100332.70;;;25.69;37.12
64460;BME280;50828;53.756;21.140;2023-07-08T12:04:27;100330.14;;;25.77;36.92
64460;BME280;50828;53.756;21.140;2023-07-08T12:09:44;100332.23;;;25.87;36.54
64460;BME280;50828;53.756;21.140;2023-07-08T12:14:58;100319.21;;;25.82;36.30
64460;BME280;50828;53.756;21.140;2023-07-08T12:20:11;100335.65;;;25.98;36.41
64460;BME280;50828;53.756;21.140;2023-07-08T12:25:26;100334.68;;;26.04;35.75
64460;BME280;50828;53.756;21.140;2023-07-08T12:30:35;100325.20;;;26.07;35.15
64460;BME280;50828;53.756;21.140;2023-07-08T12:35:44;100324.93;;;26.11;35.26
64460;BME280;50828;53.756;21.140;2023-07-08T12:40:53;100321.55;;;26.14;35.29
64460;BME280;50828;53.756;21.140;2023-07-08T12:46:01;100326.14;;;26.20;35.08
64460;BME280;50828;53.756;21.140;2023-07-08T12:51:14;100322.36;;;26.26;35.10
64460;BME280;50828;53.756;21.140;2023-07-08T12:56:23;100319.77;;;26.33;35.37
64460;BME280;50828;53.756;21.140;2023-07-08T13:01:33;100319.99;;;26.42;35.57
64460;BME280;50828;53.756;21.140;2023-07-08T13:06:45;100315.73;;;26.48;35.24
64460;BME280;50828;53.756;21.140;2023-07-08T13:11:55;100316.80;;;26.51;35.23
64460;BME280;50828;53.756;21.140;2023-07-08T13:17:05;100309.62;;;26.49;35.11
64460;BME280;50828;53.756;21.140;2023-07-08T13:22:16;100304.44;;;26.50;35.08
64460;BME280;50828;53.756;21.140;2023-07-08T13:27:25;100304.74;;;26.51;35.26
64460;BME280;50828;53.756;21.140;2023-07-08T13:32:33;100307.73;;;26.51;35.56
64460;BME280;50828;53.756;21.140;2023-07-08T13:37:44;100309.73;;;26.53;35.15
64460;BME280;50828;53.756;21.140;2023-07-08T13:42:54;100309.91;;;26.53;34.90
64460;BME280;50828;53.756;21.140;2023-07-08T13:48:10;100308.57;;;26.51;35.05
64460;BME280;50828;53.756;21.140;2023-07-08T13:53:25;100308.27;;;26.52;35.27
64460;BME280;50828;53.756;21.140;2023-07-08T13:58:33;100308.52;;;26.51;35.21
64460;BME280;50828;53.756;21.140;2023-07-08T14:03:41;100300.53;;;26.46;35.27
64460;BME280;50828;53.756;21.140;2023-07-08T14:08:48;100303.80;;;26.46;35.54
64460;BME280;50828;53.756;21.140;2023-07-08T14:13:56;100304.02;;;26.46;35.53
64460;BME280;50828;53.756;21.140;2023-07-08T14:19:05;100303.80;;;26.44;35.11
64460;BME280;50828;53.756;21.140;2023-07-08T14:24:15;100304.79;;;26.45;35.11
64460;BME280;50828;53.756;21.140;2023-07-08T14:29:22;100307.16;;;26.47;34.92
64460;BME280;50828;53.756;21.140;2023-07-08T14:34:30;100303.99;;;26.49;34.93
64460;BME280;50828;53.756;21.140;2023-07-08T14:39:40;100291.73;;;26.49;34.91
64460;BME280;50828;53.756;21.140;2023-07-08T14:44:50;100291.67;;;26.48;35.23
64460;BME280;50828;53.756;21.140;2023-07-08T14:49:58;100288.88;;;26.45;35.46
64460;BME280;50828;53.756;21.140;2023-07-08T14:55:07;100294.59;;;26.44;35.35
64460;BME280;50828;53.756;21.140;2023-07-08T15:00:18;100298.55;;;26.41;35.12
64460;BME280;50828;53.756;21.140;2023-07-08T15:05:27;100297.55;;;26.37;35.02
64460;BME280;50828;53.756;21.140;2023-07-08T15:10:36;100288.92;;;26.30;35.11
64460;BME280;50828;53.756;21.140;2023-07-08T15:15:44;100288.78;;;26.26;35.36
64460;BME280;50828;53.756;21.140;2023-07-08T15:20:52;100290.48;;;26.20;35.54
64460;BME280;50828;53.756;21.140;2023-07-08T15:25:59;100291.77;;;26.15;35.64
64460;BME280;50828;53.756;21.140;2023-07-08T15:31:09;100293.40;;;26.12;35.68
64460;BME280;50828;53.756;21.140;2023-07-08T15:36:17;100289.73;;;26.08;35.59
64460;BME280;50828;53.756;21.140;2023-07-08T15:41:25;100289.39;;;26.02;35.83
64460;BME280;50828;53.756;21.140;2023-07-08T15:46:34;100290.15;;;25.98;35.91
64460;BME280;50828;53.756;21.140;2023-07-08T15:51:42;100289.61;;;25.95;36.05
64460;BME280;50828;53.756;21.140;2023-07-08T15:56:55;100288.37;;;25.92;36.06
64460;BME280;50828;53.756;21.140;2023-07-08T16:02:11;100295.21;;;25.91;35.99
64460;BME280;50828;53.756;21.140;2023-07-08T16:07:23;100288.88;;;25.86;36.09
64460;BME280;50828;53.756;21.140;2023-07-08T16:12:30;100291.49;;;25.83;36.46
64460;BME280;50828;53.756;21.140;2023-07-08T16:17:39;100291.72;;;25.79;36.52
64460;BME280;50828;53.756;21.140;2023-07-08T16:22:47;100291.69;;;25.74;36.70
64460;BME280;50828;53.756;21.140;2023-07-08T16:27:55;100287.77;;;25.70;36.76
64460;BME280;50828;53.756;21.140;2023-07-08T16:33:03;100290.60;;;25.65;36.79
64460;BME280;50828;53.756;21.140;2023-07-08T16:38:11;100290.59;;;25.60;36.89
64460;BME280;50828;53.756;21.140;2023-07-08T16:43:23;100289.77;;;25.54;36.71
64460;BME280;50828;53.756;21.140;2023-07-08T16:48:32;100289.80;;;25.46;37.01
64460;BME280;50828;53.756;21.140;2023-07-08T16:53:40;100296.30;;;25.39;37.14
64460;BME280;50828;53.756;21.140;2023-07-08T16:58:48;100298.27;;;25.33;37.05
64460;BME280;50828;53.756;21.140;2023-07-08T17:03:56;100289.27;;;25.25;37.38
64460;BME280;50828;53.756;21.140;2023-07-08T17:09:04;100288.53;;;25.19;37.50
64460;BME280;50828;53.756;21.140;2023-07-08T17:14:14;100288.83;;;25.12;37.28
64460;BME280;50828;53.756;21.140;2023-07-08T17:19:22;100294.96;;;25.05;37.29
64460;BME280;50828;53.756;21.140;2023-07-08T17:24:29;100291.36;;;24.95;37.34
64460;BME280;50828;53.756;21.140;2023-07-08T17:29:37;100295.58;;;24.89;37.52
64460;BME280;50828;53.756;21.140;2023-07-08T17:34:45;100294.71;;;24.79;37.43
64460;BME280;50828;53.756;21.140;2023-07-08T17:39:52;100297.54;;;24.71;37.37
64460;BME280;50828;53.756;21.140;2023-07-08T17:45:00;100300.25;;;24.61;37.39
64460;BME280;50828;53.756;21.140;2023-07-08T17:50:18;100305.73;;;24.51;37.54
64460;BME280;50828;53.756;21.140;2023-07-08T17:55:27;100312.23;;;24.41;37.70
64460;BME280;50828;53.756;21.140;2023-07-08T18:00:35;100313.22;;;24.30;37.68
64460;BME280;50828;53.756;21.140;2023-07-08T18:05:42;100309.61;;;24.17;37.74
64460;BME280;50828;53.756;21.140;2023-07-08T18:10:50;100312.70;;;24.07;37.84
64460;BME280;50828;53.756;21.140;2023-07-08T18:15:57;100314.67;;;23.96;38.04
64460;BME280;50828;53.756;21.140;2023-07-08T18:21:11;100313.34;;;23.83;38.07
64460;BME280;50828;53.756;21.140;2023-07-08T18:26:21;100305.43;;;23.69;38.11
64460;BME280;50828;53.756;21.140;2023-07-08T18:31:31;100307.30;;;23.56;38.58
64460;BME280;50828;53.756;21.140;2023-07-08T18:36:39;100305.92;;;23.40;38.92
64460;BME280;50828;53.756;21.140;2023-07-08T18:41:47;100312.11;;;23.27;38.88
64460;BME280;50828;53.756;21.140;2023-07-08T18:46:55;100315.34;;;23.13;39.12
64460;BME280;50828;53.756;21.140;2023-07-08T18:52:03;100318.95;;;23.03;39.25
64460;BME280;50828;53.756;21.140;2023-07-08T18:57:14;100316.69;;;22.91;39.64
64460;BME280;50828;53.756;21.140;2023-07-08T19:02:33;100319.11;;;22.84;39.75
64460;BME280;50828;53.756;21.140;2023-07-08T19:07:43;100318.27;;;22.76;39.65
64460;BME280;50828;53.756;21.140;2023-07-08T19:12:52;100326.60;;;22.67;40.09
64460;BME280;50828;53.756;21.140;2023-07-08T19:17:59;100333.90;;;22.55;40.82
64460;BME280;50828;53.756;21.140;2023-07-08T19:23:13;100335.11;;;22.41;41.44
64460;BME280;50828;53.756;21.140;2023-07-08T19:28:22;100339.39;;;22.26;41.89
64460;BME280;50828;53.756;21.140;2023-07-08T19:33:30;100349.48;;;22.13;42.51
64460;BME280;50828;53.756;21.140;2023-07-08T19:38:39;100351.83;;;21.96;42.48
64460;BME280;50828;53.756;21.140;2023-07-08T19:43:47;100354.05;;;21.78;42.64
64460;BME280;50828;53.756;21.140;2023-07-08T19:48:57;100358.10;;;21.57;43.11
64460;BME280;50828;53.756;21.140;2023-07-08T19:54:05;100363.85;;;21.37;43.26
64460;BME280;50828;53.756;21.140;2023-07-08T19:59:14;100355.67;;;21.14;43.44
64460;BME280;50828;53.756;21.140;2023-07-08T20:04:22;100363.44;;;20.93;43.44
64460;BME280;50828;53.756;21.140;2023-07-08T20:09:30;100361.58;;;20.71;43.73
64460;BME280;50828;53.756;21.140;2023-07-08T20:14:37;100358.46;;;20.51;44.19
64460;BME280;50828;53.756;21.140;2023-07-08T20:19:45;100361.11;;;20.30;44.45
64460;BME280;50828;53.756;21.140;2023-07-08T20:24:53;100357.40;;;20.09;44.66
64460;BME280;50828;53.756;21.140;2023-07-08T20:30:01;100356.91;;;19.87;44.98
64460;BME280;50828;53.756;21.140;2023-07-08T20:35:09;100359.59;;;19.67;45.49
64460;BME280;50828;53.756;21.140;2023-07-08T20:40:20;100358.17;;;19.45;45.86
64460;BME280;50828;53.756;21.140;2023-07-08T20:45:29;100360.48;;;19.31;46.23
64460;BME280;50828;53.756;21.140;2023-07-08T20:50:37;100359.98;;;19.13;46.25
64460;BME280;50828;53.756;21.140;2023-07-08T20:55:45;100362.46;;;18.96;46.46
64460;BME280;50828;53.756;21.140;2023-07-08T21:00:53;100365.96;;;18.79;46.52
64460;BME280;50828;53.756;21.140;2023-07-08T21:06:01;100367.32;;;18.62;46.53
64460;BME280;50828;53.756;21.140;2023-07-08T21:11:11;100370.91;;;18.43;46.81
64460;BME280;50828;53.756;21.140;2023-07-08T21:16:20;100366.67;;;18.24;47.25
64460;BME280;50828;53.756;21.140;2023-07-08T21:21:28;100366.17;;;18.05;47.27
64460;BME280;50828;53.756;21.140;2023-07-08T21:26:37;100368.09;;;17.87;47.60
64460;BME280;50828;53.756;21.140;2023-07-08T21:31:45;100366.79;;;17.69;48.20
64460;BME280;50828;53.756;21.140;2023-07-08T21:36:52;100372.17;;;17.55;49.09
64460;BME280;50828;53.756;21.140;2023-07-08T21:42:00;100373.26;;;17.43;49.70
64460;BME280;50828;53.756;21.140;2023-07-08T21:47:08;100372.69;;;17.33;50.20
64460;BME280;50828;53.756;21.140;2023-07-08T21:52:16;100367.95;;;17.23;50.84
64460;BME280;50828;53.756;21.140;2023-07-08T21:57:23;100370.80;;;17.15;51.29
64460;BME280;50828;53.756;21.140;2023-07-08T22:02:30;100370.38;;;17.08;51.62
64460;BME280;50828;53.756;21.140;2023-07-08T22:07:39;100368.12;;;17.01;51.79
64460;BME280;50828;53.756;21.140;2023-07-08T22:12:47;100368.93;;;16.97;52.22
64460;BME280;50828;53.756;21.140;2023-07-08T22:17:57;100372.47;;;16.91;52.45
64460;BME280;50828;53.756;21.140;2023-07-08T22:23:06;100365.55;;;16.85;52.62
64460;BME280;50828;53.756;21.140;2023-07-08T22:28:15;100369.63;;;16.79;52.81
64460;BME280;50828;53.756;21.140;2023-07-08T22:33:23;100372.89;;;16.73;53.02
64460;BME280;50828;53.756;21.140;2023-07-08T22:38:30;100376.48;;;16.63;52.75
64460;BME280;50828;53.756;21.140;2023-07-08T22:43:38;100373.60;;;16.55;52.89
64460;BME280;50828;53.756;21.140;2023-07-08T22:48:46;100370.56;;;16.47;52.94
64460;BME280;50828;53.756;21.140;2023-07-08T22:53:55;100371.86;;;16.37;53.11
64460;BME280;50828;53.756;21.140;2023-07-08T22:59:03;100373.72;;;16.26;53.34
64460;BME280;50828;53.756;21.140;2023-07-08T23:04:10;100380.04;;;16.19;53.67
64460;BME280;50828;53.756;21.140;2023-07-08T23:09:18;100377.71;;;16.10;54.26
64460;BME280;50828;53.756;21.140;2023-07-08T23:14:27;100379.77;;;16.02;54.61
64460;BME280;50828;53.756;21.140;2023-07-08T23:19:34;100378.23;;;15.95;54.98
64460;BME280;50828;53.756;21.140;2023-07-08T23:24:42;100378.61;;;15.88;55.08
64460;BME280;50828;53.756;21.140;2023-07-08T23:29:50;100381.25;;;15.83;54.72
64460;BME280;50828;53.756;21.140;2023-07-08T23:34:57;100378.25;;;15.76;54.70
64460;BME280;50828;53.756;21.140;2023-07-08T23:40:11;100375.25;;;15.69;54.67
64460;BME280;50828;53.756;21.140;2023-07-08T23:45:22;100376.36;;;15.59;54.42
64460;BME280;50828;53.756;21.140;2023-07-08T23:50:29;100381.04;;;15.52;54.11
64460;BME280;50828;53.756;21.140;2023-07-08T23:55:37;100384.88;;;15.43;54.40
